Time;durP1;ratioP1;P1;durP2;ratioP2;P2;SDS_P1;SDS_P2;PMS_P1;PMS_P2;Temp;Humidity;BMP_temperature;BMP_pressure;BME280_temperature;BME280_humidity;BME280_pressure;Samples;Min_cycle;Max_cycle;Signal;HPM_P1;HPM_P2
2022/05/13 00:02:18;;;;;;;6.83;6.23;;;;;;;12.75;68.74;100510.28;5080204;28;20221;-78
2022/05/13 00:04:45;;;;;;;6.67;6.17;;;;;;;12.69;69.07;100500.81;5079029;28;20718;-78
2022/05/13 00:07:11;;;;;;;6.90;6.30;;;;;;;12.71;68.82;100496.41;5079063;28;20243;-78
2022/05/13 00:12:22;;;;;;;8.13;7.40;;;;;;;12.64;66.84;100557.69;5077859;28;20812;-78
2022/05/13 00:14:51;;;;;;;9.23;8.63;;;;;;;12.10;67.82;100563.38;5077936;28;20204;-79
2022/05/13 00:17:18;;;;;;;10.27;9.10;;;;;;;12.25;67.90;100544.72;5078137;28;20205;-78
2022/05/13 00:19:45;;;;;;;9.33;8.43;;;;;;;12.34;68.04;100535.75;5078837;28;20257;-78
2022/05/13 00:22:12;;;;;;;7.60;7.10;;;;;;;12.38;68.55;100520.84;5078749;28;20266;-79
2022/05/13 00:24:39;;;;;;;7.83;7.23;;;;;;;12.47;68.48;100520.63;5062101;28;20255;-78
2022/05/13 00:27:06;;;;;;;7.87;7.27;;;;;;;12.51;67.90;100541.44;5078913;28;20229;-78
2022/05/13 00:29:33;;;;;;;7.53;7.03;;;;;;;12.56;68.04;100537.84;5078205;28;20258;-78
2022/05/13 00:32:01;;;;;;;7.03;6.53;;;;;;;12.61;68.35;100525.50;5079162;28;20228;-78
2022/05/13 00:34:28;;;;;;;8.33;7.70;;;;;;;12.63;68.69;100516.69;5078228;28;20215;-78
2022/05/13 00:36:55;;;;;;;8.37;7.70;;;;;;;12.64;68.33;100526.25;5077434;28;20623;-78
2022/05/13 00:39:21;;;;;;;7.83;7.33;;;;;;;12.59;68.29;100517.69;5075039;28;20266;-78
2022/05/13 00:41:48;;;;;;;8.70;7.93;;;;;;;12.60;68.32;100535.09;5076739;28;20221;-78
2022/05/13 00:44:15;;;;;;;8.00;7.50;;;;;;;12.52;68.59;100519.59;5075136;28;20674;-78
2022/05/13 00:46:42;;;;;;;7.80;7.10;;;;;;;12.51;68.68;100511.78;5075439;28;20324;-78
2022/05/13 00:49:14;;;;;;;7.20;6.80;;;;;;;12.42;68.98;100506.78;5074653;28;20266;-78
2022/05/13 00:51:45;;;;;;;7.43;6.83;;;;;;;12.44;69.12;100508.44;5075275;28;20247;-78
2022/05/13 00:54:14;;;;;;;8.13;7.53;;;;;;;12.37;69.13;100498.16;5059230;28;20221;-77
2022/05/13 00:56:43;;;;;;;8.50;7.60;;;;;;;12.33;69.00;100502.66;5079387;28;20616;-78
2022/05/13 00:59:13;;;;;;;8.60;7.80;;;;;;;12.35;68.68;100494.72;5079941;28;20295;-79
2022/05/13 01:01:39;;;;;;;8.03;7.53;;;;;;;12.36;68.86;100499.09;5080018;28;20233;-79
2022/05/13 01:04:10;;;;;;;7.53;7.03;;;;;;;12.32;69.29;100485.22;5078510;28;20224;-78
2022/05/13 01:06:41;;;;;;;8.47;7.70;;;;;;;12.22;69.44;100473.25;5075581;28;20197;-78
2022/05/13 01:09:08;;;;;;;8.97;8.17;;;;;;;12.17;69.86;100468.16;5076544;28;20266;-79
2022/05/13 01:11:38;;;;;;;9.70;8.90;;;;;;;12.10;69.48;100469.19;5079724;28;20247;-79
2022/05/13 01:14:08;;;;;;;10.10;8.87;;;;;;;11.66;71.01;100458.88;5078468;28;20205;-79
2022/05/13 01:18:05;;;;;;;9.37;8.67;;;;;;;11.42;72.51;100410.63;5076702;28;20207;-79
2022/05/13 01:19:21;;;;;;;8.77;8.17;;;;;;;11.53;73.06;100365.91;5076373;28;20221;-79
2022/05/13 01:21:49;;;;;;;9.27;8.53;;;;;;;11.65;72.50;100364.75;5077940;28;20309;-80
2022/05/13 01:24:16;;;;;;;9.60;8.80;;;;;;;11.78;72.44;100378.41;5063504;28;20213;-79
2022/05/13 01:26:43;;;;;;;9.40;8.40;;;;;;;11.85;72.49;100380.84;5076225;28;20204;-78
2022/05/13 01:29:10;;;;;;;9.13;8.33;;;;;;;11.91;72.70;100377.22;5075230;28;20217;-78
2022/05/13 01:31:38;;;;;;;9.80;9.00;;;;;;;11.97;71.77;100391.91;5075455;28;20357;-78
2022/05/13 01:34:10;;;;;;;8.87;8.27;;;;;;;12.00;71.87;100387.44;5075416;28;20262;-78
2022/05/13 01:36:39;;;;;;;8.93;8.27;;;;;;;12.01;71.74;100386.56;5075100;28;20205;-78
2022/05/13 01:39:07;;;;;;;9.00;8.37;;;;;;;12.07;71.57;100402.09;5074793;28;20572;-78
2022/05/13 01:41:34;;;;;;;9.20;8.60;;;;;;;12.10;71.59;100398.53;5074920;28;20233;-78
2022/05/13 01:44:01;;;;;;;9.53;8.83;;;;;;;12.09;71.63;100389.84;5074902;28;20269;-78
2022/05/13 01:46:27;;;;;;;11.43;9.23;;;;;;;12.09;72.02;100378.50;5075148;28;20208;-78
2022/05/13 01:48:54;;;;;;;8.80;8.13;;;;;;;12.08;71.94;100368.94;5073886;28;20229;-79
2022/05/13 01:51:22;;;;;;;9.67;8.97;;;;;;;12.07;72.14;100375.94;5060322;28;20609;-79
2022/05/13 01:53:48;;;;;;;8.63;7.90;;;;;;;12.11;72.16;100380.19;5078881;28;20235;-79
2022/05/13 01:56:16;;;;;;;9.00;8.40;;;;;;;12.09;71.98;100388.97;5074874;28;20740;-78
2022/05/13 01:58:43;;;;;;;8.53;7.73;;;;;;;12.11;72.04;100380.19;5074490;28;20208;-78
2022/05/13 02:01:09;;;;;;;8.67;7.93;;;;;;;12.15;72.11;100380.09;5074468;28;21044;-78
2022/05/13 02:03:45;;;;;;;9.00;8.30;;;;;;;12.19;72.17;100366.03;5074542;28;20221;-78
2022/05/13 02:06:12;;;;;;;8.60;8.00;;;;;;;12.10;72.29;100362.75;5074081;28;20181;-78
2022/05/13 02:08:40;;;;;;;8.03;7.53;;;;;;;12.07;72.97;100354.13;5073510;28;20709;-79
2022/05/13 02:11:07;;;;;;;9.27;8.57;;;;;;;11.99;73.94;100328.19;5074694;28;20264;-78
2022/05/13 02:13:35;;;;;;;8.70;8.20;;;;;;;12.02;73.69;100312.41;5078464;28;20297;-79
2022/05/13 02:16:03;;;;;;;7.97;7.37;;;;;;;12.01;73.45;100317.66;5077612;28;20662;-79
2022/05/13 02:18:30;;;;;;;8.77;8.07;;;;;;;12.01;73.60;100334.25;5078337;28;20205;-78
2022/05/13 02:20:56;;;;;;;7.77;7.20;;;;;;;12.06;73.64;100326.25;5064329;28;20260;-78
2022/05/13 02:23:23;;;;;;;9.57;8.70;;;;;;;11.99;72.33;100356.97;5075100;28;20228;-78
2022/05/13 02:25:50;;;;;;;9.10;8.50;;;;;;;11.97;72.65;100386.66;5067093;28;20205;-78
2022/05/13 02:28:18;;;;;;;9.00;8.40;;;;;;;11.93;72.93;100372.81;5079308;28;20243;-79
2022/05/13 02:30:46;;;;;;;7.87;7.17;;;;;;;11.97;73.61;100318.66;5081211;28;20205;-79
2022/05/13 02:33:13;;;;;;;8.97;8.23;;;;;;;11.90;73.78;100317.97;5071040;28;20315;-79
2022/05/13 02:35:39;;;;;;;8.40;7.67;;;;;;;11.86;74.21;100308.47;5083699;28;20213;-79
2022/05/13 02:38:06;;;;;;;8.03;7.43;;;;;;;11.88;74.48;100307.50;5082133;28;20204;-79
2022/05/13 02:43:16;;;;;;;8.83;8.23;;;;;;;11.87;73.45;100315.38;5073762;28;20668;-79
2022/05/13 02:45:43;;;;;;;8.80;8.20;;;;;;;11.84;73.31;100331.19;5073227;28;20229;-79
2022/05/13 02:48:10;;;;;;;8.83;8.23;;;;;;;11.77;73.34;100340.91;5083288;28;20284;-79
2022/05/13 02:50:39;;;;;;;9.77;9.07;;;;;;;11.74;74.01;100312.25;5078409;28;20208;-78
2022/05/13 02:53:06;;;;;;;10.03;9.23;;;;;;;11.73;73.53;100328.81;5078671;28;20236;-78
2022/05/13 02:55:32;;;;;;;10.67;9.60;;;;;;;11.73;73.79;100328.81;5077749;28;20729;-78
2022/05/13 02:57:59;;;;;;;9.50;8.77;;;;;;;11.72;74.08;100314.91;5064860;28;20191;-78
2022/05/13 03:00:26;;;;;;;9.37;8.67;;;;;;;11.73;73.76;100316.63;5075423;28;20256;-78
2022/05/13 03:02:53;;;;;;;8.80;8.10;;;;;;;11.74;73.55;100330.56;5078476;28;20511;-79
2022/05/13 03:05:21;;;;;;;8.60;8.00;;;;;;;11.72;73.51;100330.59;5078712;28;20234;-78
2022/05/13 03:07:47;;;;;;;8.60;7.90;;;;;;;11.69;73.64;100335.91;5078799;28;20227;-78
2022/05/13 03:10:14;;;;;;;9.33;8.63;;;;;;;11.64;73.18;100345.59;5077375;28;20209;-78
2022/05/13 03:12:40;;;;;;;8.63;7.97;;;;;;;11.67;73.62;100339.44;5078048;28;20263;-78
2022/05/13 03:15:08;;;;;;;7.67;7.17;;;;;;;11.64;73.62;100336.91;5078080;28;20236;-78
2022/05/13 03:17:37;;;;;;;7.90;7.30;;;;;;;11.67;73.39;100326.38;5078003;28;20204;-78
2022/05/13 03:20:05;;;;;;;8.43;7.80;;;;;;;11.72;73.32;100335.81;5078507;28;20204;-78
2022/05/13 03:22:33;;;;;;;7.67;7.07;;;;;;;11.68;73.37;100335.94;5078197;28;20221;-78
2022/05/13 03:25:00;;;;;;;7.57;6.97;;;;;;;11.69;73.57;100321.94;5078355;28;20264;-78
2022/05/13 03:27:27;;;;;;;7.80;7.20;;;;;;;11.74;73.80;100317.47;5068482;28;20201;-79
2022/05/13 03:29:53;;;;;;;7.97;7.47;;;;;;;11.73;74.22;100306.16;5070343;28;20208;-78
2022/05/13 03:32:20;;;;;;;7.60;7.07;;;;;;;11.75;74.42;100298.25;5078343;28;20228;-78
2022/05/13 03:34:46;;;;;;;7.53;7.00;;;;;;;11.77;74.61;100295.59;5079545;28;20208;-78
2022/05/13 03:37:12;;;;;;;8.27;7.67;;;;;;;11.84;74.47;100299.78;5078670;28;20211;-78
2022/05/13 03:39:40;;;;;;;7.50;6.97;;;;;;;11.86;74.29;100290.16;5078449;28;20208;-78
2022/05/13 03:42:09;;;;;;;7.67;7.07;;;;;;;11.94;74.31;100295.22;5078700;28;20229;-78
2022/05/13 03:44:36;;;;;;;9.23;7.50;;;;;;;11.99;73.63;100309.00;5078961;28;20278;-78
2022/05/13 03:47:03;;;;;;;8.80;8.20;;;;;;;12.00;73.69;100326.44;5078558;28;20213;-78
2022/05/13 03:49:30;;;;;;;7.90;7.30;;;;;;;12.00;73.84;100326.44;5077758;28;20220;-78
2022/05/13 03:51:56;;;;;;;8.50;7.87;;;;;;;12.02;73.49;100319.41;5078147;28;20225;-78
2022/05/13 03:54:23;;;;;;;8.60;7.90;;;;;;;12.06;73.34;100339.34;5077755;28;20225;-78
2022/05/13 03:56:50;;;;;;;10.27;8.03;;;;;;;12.10;73.14;100340.97;5074395;28;20730;-78
2022/05/13 03:59:17;;;;;;;9.27;8.57;;;;;;;12.13;72.48;100356.59;5065102;28;20201;-79
2022/05/13 04:01:43;;;;;;;7.60;7.00;;;;;;;12.16;72.21;100366.13;5078332;28;20248;-79
2022/05/13 04:04:10;;;;;;;8.50;7.90;;;;;;;12.18;71.58;100370.41;5079243;28;20212;-79
2022/05/13 04:09:21;;;;;;;8.43;7.73;;;;;;;12.25;71.47;100371.97;5057793;28;20248;-78
2022/05/13 04:17:14;;;;;;;9.67;8.97;;;;;;;12.22;72.54;100371.19;5078749;28;20216;-78
2022/05/13 04:19:41;;;;;;;10.20;9.43;;;;;;;12.25;71.59;100371.09;5077322;28;20205;-78
2022/05/13 04:22:07;;;;;;;9.60;8.80;;;;;;;12.25;71.64;100385.06;5077422;28;20584;-78
2022/05/13 04:24:33;;;;;;;9.47;8.67;;;;;;;12.30;71.61;100379.69;5079570;28;20204;-79
2022/05/13 04:27:00;;;;;;;8.90;8.20;;;;;;;12.29;71.50;100372.75;5078093;28;20212;-79
2022/05/13 04:29:27;;;;;;;8.67;8.07;;;;;;;12.31;72.43;100366.56;5078291;28;20333;-78
2022/05/13 04:31:54;;;;;;;8.30;7.73;;;;;;;12.34;72.47;100352.53;5077909;28;20233;-78
2022/05/13 04:34:21;;;;;;;9.53;8.83;;;;;;;12.32;72.26;100370.88;5077642;28;20686;-78
2022/05/13 04:36:47;;;;;;;8.97;8.13;;;;;;;12.37;71.49;100386.50;5075899;28;20253;-78
2022/05/13 04:39:14;;;;;;;8.67;8.07;;;;;;;12.43;72.15;100381.09;5059881;28;20240;-78
2022/05/13 04:44:24;;;;;;;9.20;8.50;;;;;;;12.51;72.36;100392.19;5075893;28;20208;-78
2022/05/13 04:46:51;;;;;;;9.43;8.73;;;;;;;12.52;72.69;100372.94;5075649;28;20201;-78
2022/05/13 04:49:18;;;;;;;9.60;8.90;;;;;;;12.57;71.76;100385.09;5074240;28;20266;-77
2022/05/13 04:51:45;;;;;;;10.27;9.57;;;;;;;12.55;71.74;100392.97;5073448;28;20221;-77
2022/05/13 04:54:11;;;;;;;11.03;10.03;;;;;;;12.62;71.32;100399.75;5072792;28;20213;-78
2022/05/13 04:56:38;;;;;;;9.20;8.33;;;;;;;12.70;71.03;100410.88;5073962;28;20666;-78
2022/05/13 04:59:05;;;;;;;9.40;8.47;;;;;;;12.75;71.16;100407.28;5068094;28;20236;-78
2022/05/13 05:01:31;;;;;;;9.40;8.70;;;;;;;12.74;72.58;100369.72;5070972;28;20247;-79
2022/05/13 05:03:58;;;;;;;8.57;7.97;;;;;;;12.79;72.53;100369.63;5075836;28;20824;-77
2022/05/13 05:06:26;;;;;;;7.80;7.20;;;;;;;12.76;70.93;100386.25;5075049;28;20212;-79
2022/05/13 05:08:56;;;;;;;8.03;7.37;;;;;;;12.84;70.77;100420.97;5061825;28;20221;-78
2022/05/13 05:11:23;;;;;;;8.30;7.63;;;;;;;12.73;69.74;100438.75;5079054;28;20209;-78
2022/05/13 05:13:51;;;;;;;7.70;6.90;;;;;;;12.80;70.55;100435.03;5076098;28;20205;-78
2022/05/13 05:16:21;;;;;;;7.63;7.13;;;;;;;12.84;73.17;100402.63;5074338;28;20251;-78
2022/05/13 05:18:48;;;;;;;7.43;6.77;;;;;;;12.81;70.30;100428.91;5073863;28;20205;-78
2022/05/13 05:21:15;;;;;;;6.53;6.03;;;;;;;12.94;69.13;100471.31;5074439;28;20262;-78
2022/05/13 05:23:44;;;;;;;7.83;7.23;;;;;;;13.06;69.34;100484.09;5074695;28;20209;-78
2022/05/13 05:26:11;;;;;;;6.63;6.10;;;;;;;13.09;68.85;100494.47;5077039;28;20214;-78
2022/05/13 05:28:38;;;;;;;7.30;6.60;;;;;;;13.21;69.18;100502.91;5076655;28;20236;-78
2022/05/13 05:31:05;;;;;;;7.50;6.57;;;;;;;13.24;68.46;100505.41;5076461;28;20201;-78
2022/05/13 05:33:32;;;;;;;8.00;7.20;;;;;;;13.33;67.74;100522.69;5075711;28;20279;-78
2022/05/13 05:35:59;;;;;;;10.33;7.10;;;;;;;13.28;67.85;100530.66;5076434;28;20216;-78
2022/05/13 05:38:26;;;;;;;7.43;6.43;;;;;;;13.39;68.37;100512.03;5059206;28;20206;-79
2022/05/13 05:40:55;;;;;;;7.10;6.43;;;;;;;13.44;67.79;100529.34;5076316;28;20208;-78
2022/05/13 05:43:22;;;;;;;6.80;6.30;;;;;;;13.46;67.37;100539.78;5075577;28;20232;-79
2022/05/13 05:45:49;;;;;;;7.90;7.20;;;;;;;13.36;66.50;100575.91;5057951;28;20663;-78
2022/05/13 05:48:21;;;;;;;6.23;5.63;;;;;;;13.25;66.07;100609.38;5075631;28;20229;-79
2022/05/13 05:50:49;;;;;;;7.00;6.40;;;;;;;13.07;66.10;100632.56;5074662;28;20193;-78
2022/05/13 05:57:13;;;;;;;6.87;6.10;;;;;;;13.13;66.54;100625.44;5073949;28;20239;-78
2022/05/13 05:58:49;;;;;;;6.67;6.07;;;;;;;12.97;67.80;100598.78;5074016;28;20243;-78
2022/05/13 06:01:16;;;;;;;7.60;6.97;;;;;;;12.89;67.56;100594.59;5074026;28;20204;-77
2022/05/13 06:03:43;;;;;;;7.77;6.93;;;;;;;12.95;68.16;100598.81;5064422;28;20205;-78
2022/05/13 06:06:12;;;;;;;7.50;6.67;;;;;;;12.93;68.64;100571.81;5064512;28;20666;-78
2022/05/13 06:08:38;;;;;;;6.80;6.20;;;;;;;12.96;68.44;100576.09;5063161;28;20217;-78
2022/05/13 06:11:07;;;;;;;6.47;5.87;;;;;;;12.96;68.25;100592.66;5060870;28;20203;-77
2022/05/13 06:13:33;;;;;;;7.07;5.90;;;;;;;12.95;68.30;100587.50;5061089;28;20226;-78
2022/05/13 06:16:00;;;;;;;6.07;5.47;;;;;;;12.75;67.47;100624.69;5065280;28;20616;-78
2022/05/13 06:18:26;;;;;;;5.77;5.27;;;;;;;12.96;67.19;100624.09;5066448;28;20193;-79
2022/05/13 06:20:52;;;;;;;6.20;5.63;;;;;;;12.99;67.23;100641.53;5066625;28;20227;-79
2022/05/13 06:23:19;;;;;;;5.67;5.20;;;;;;;12.79;67.78;100640.28;5063096;28;20243;-77
2022/05/13 06:25:45;;;;;;;6.03;4.23;;;;;;;12.72;66.03;100659.66;5067540;28;20211;-78
2022/05/13 06:28:13;;;;;;;5.67;5.17;;;;;;;12.80;66.96;100656.84;5067073;28;20246;-79
2022/05/13 06:30:40;;;;;;;5.30;3.40;;;;;;;12.74;64.88;100689.28;5070169;28;20204;-79
2022/05/13 06:33:07;;;;;;;4.53;3.20;;;;;;;12.69;63.72;100754.03;5068662;28;20768;-80
2022/05/13 06:35:35;;;;;;;4.60;3.10;;;;;;;12.64;63.42;100774.19;5071593;28;20666;-79
2022/05/13 06:38:01;;;;;;;4.43;3.07;;;;;;;12.76;64.15;100745.09;5059468;22;20292;-74
2022/05/13 06:40:27;;;;;;;4.33;3.63;;;;;;;12.65;64.59;100728.81;5028080;28;20249;-74
2022/05/13 06:42:54;;;;;;;4.47;3.00;;;;;;;12.77;63.63;100740.75;5017735;28;20707;-74
2022/05/13 06:45:22;;;;;;;5.37;3.33;;;;;;;12.70;63.07;100781.94;5010605;28;20252;-74
2022/05/13 06:47:49;;;;;;;3.63;3.27;;;;;;;12.75;64.13;100748.66;5011174;28;20217;-74
2022/05/13 06:50:18;;;;;;;4.27;3.17;;;;;;;12.91;64.37;100722.94;5010878;28;20219;-73
2022/05/13 06:52:45;;;;;;;4.40;3.53;;;;;;;12.79;63.20;100747.66;5011096;28;20231;-73
2022/05/13 06:55:14;;;;;;;5.33;4.67;;;;;;;12.88;63.55;100763.19;5006626;28;20202;-73
2022/05/13 06:57:41;;;;;;;3.53;3.13;;;;;;;12.76;63.62;100780.94;5007706;28;20265;-74
2022/05/13 07:00:10;;;;;;;4.10;3.70;;;;;;;12.99;64.41;100743.72;5013110;28;20249;-74
2022/05/13 07:02:38;;;;;;;4.77;3.60;;;;;;;13.08;63.74;100753.97;5014464;28;20248;-73
2022/05/13 07:05:06;;;;;;;3.47;3.17;;;;;;;13.30;63.18;100733.38;5010300;28;20870;-73
2022/05/13 07:07:32;;;;;;;5.83;3.70;;;;;;;13.45;63.43;100738.22;5014040;28;20202;-73
2022/05/13 07:09:59;;;;;;;5.03;3.63;;;;;;;13.43;63.11;100734.78;5014013;28;20230;-73
2022/05/13 07:12:25;;;;;;;5.60;3.33;;;;;;;13.62;63.58;100735.16;5014349;28;20231;-73
2022/05/13 07:14:53;;;;;;;4.13;3.67;;;;;;;13.65;62.45;100753.41;5014394;28;20195;-73
2022/05/13 07:17:20;;;;;;;5.63;3.83;;;;;;;13.68;63.01;100750.72;5014545;28;20210;-73
2022/05/13 07:19:48;;;;;;;4.53;3.73;;;;;;;13.80;63.36;100743.44;5013641;28;20665;-73
2022/05/13 07:22:15;;;;;;;4.63;3.43;;;;;;;13.84;62.87;100755.56;5014335;28;20584;-73
2022/05/13 07:24:41;;;;;;;7.03;3.93;;;;;;;13.86;62.92;100751.13;5014138;28;20199;-73
2022/05/13 07:27:07;;;;;;;4.13;3.73;;;;;;;13.75;62.49;100761.06;5013804;28;20200;-71
2022/05/13 07:29:34;;;;;;;7.73;3.77;;;;;;;13.75;62.55;100767.16;5013681;28;20230;-72
2022/05/13 07:32:00;;;;;;;5.40;3.70;;;;;;;13.80;61.98;100778.41;5013831;28;20704;-72
2022/05/13 07:34:27;;;;;;;4.97;4.23;;;;;;;13.98;62.33;100782.28;5010301;28;20210;-72
2022/05/13 07:36:56;;;;;;;5.37;4.17;;;;;;;13.98;61.69;100794.56;5013404;28;20257;-71
2022/05/13 07:42:08;;;;;;;4.53;4.00;;;;;;;14.24;61.20;100794.69;5012608;28;20315;-71
2022/05/13 07:44:35;;;;;;;5.07;3.17;;;;;;;14.20;60.05;100839.44;5013975;28;20199;-71
2022/05/13 07:47:01;;;;;;;4.40;3.23;;;;;;;14.29;61.44;100823.41;5013867;28;20199;-72
2022/05/13 07:49:28;;;;;;;3.33;3.03;;;;;;;14.33;61.44;100814.59;5013274;28;20711;-72
2022/05/13 07:51:55;;;;;;;3.17;2.80;;;;;;;14.34;60.59;100839.06;5013401;28;20273;-72
2022/05/13 07:54:22;;;;;;;6.90;2.90;;;;;;;14.48;60.77;100832.50;5013754;28;20203;-72
2022/05/13 07:56:49;;;;;;;5.10;3.13;;;;;;;14.56;59.89;100845.44;5013377;28;20226;-72
2022/05/13 07:59:15;;;;;;;5.27;3.17;;;;;;;14.58;59.25;100869.06;5013296;28;20206;-72
2022/05/13 08:01:42;;;;;;;6.67;3.00;;;;;;;14.38;58.41;100898.47;5011813;28;20701;-71
2022/05/13 08:04:08;;;;;;;5.80;3.17;;;;;;;14.51;58.76;100910.38;5011788;28;20201;-71
2022/05/13 08:06:35;;;;;;;3.97;2.57;;;;;;;14.38;58.19;100922.13;5012966;28;20729;-72
2022/05/13 08:09:03;;;;;;;3.47;2.30;;;;;;;14.53;58.02;100915.56;5009491;28;20226;-72
2022/05/13 08:11:30;;;;;;;3.93;2.27;;;;;;;14.52;58.36;100921.75;5011536;28;20739;-72
2022/05/13 08:13:57;;;;;;;3.10;2.30;;;;;;;14.65;58.39;100913.50;5013423;28;20204;-72
2022/05/13 08:16:26;;;;;;;4.03;2.93;;;;;;;14.47;59.11;100908.75;5013122;28;20201;-71
2022/05/13 08:18:53;;;;;;;4.43;2.47;;;;;;;14.29;58.39;100918.84;5007953;28;20267;-71
2022/05/13 08:21:20;;;;;;;3.70;2.13;;;;;;;14.42;58.37;100911.47;5012535;28;20218;-72
2022/05/13 08:23:48;;;;;;;5.40;2.30;;;;;;;14.61;56.95;100943.41;5013115;28;20199;-72
2022/05/13 08:26:16;;;;;;;3.27;2.10;;;;;;;14.66;56.42;100972.16;5012856;28;20270;-71
2022/05/13 08:28:43;;;;;;;4.60;2.40;;;;;;;14.71;56.57;101009.72;5012831;28;20261;-72
2022/05/13 08:31:10;;;;;;;4.03;2.67;;;;;;;14.68;57.64;100992.25;5013080;28;20201;-71
2022/05/13 08:33:37;;;;;;;3.40;2.20;;;;;;;14.76;57.25;100973.63;5012221;28;20585;-72
2022/05/13 08:36:07;;;;;;;5.50;2.23;;;;;;;14.79;56.67;100988.47;5012875;28;20253;-71
2022/05/13 08:38:36;;;;;;;3.57;2.03;;;;;;;14.82;56.17;101015.50;5005934;28;20211;-72
2022/05/13 08:41:17;;;;;;;5.07;2.20;;;;;;;14.64;55.42;101018.66;5011208;28;20199;-72
2022/05/13 08:43:48;;;;;;;4.30;2.57;;;;;;;14.78;56.89;100995.47;5011202;28;20191;-72
2022/05/13 08:46:22;;;;;;;4.30;2.67;;;;;;;14.83;57.40;100990.97;5007797;28;20258;-71
2022/05/13 08:48:55;;;;;;;5.33;3.13;;;;;;;14.76;57.43;100997.28;5012305;28;20241;-71
2022/05/13 08:51:31;;;;;;;7.17;3.07;;;;;;;14.97;57.36;100987.97;5012699;28;20222;-72
2022/05/13 08:54:04;;;;;;;4.40;3.27;;;;;;;15.04;56.61;101007.94;5008858;28;20214;-71
2022/05/13 08:56:31;;;;;;;5.17;3.30;;;;;;;15.21;57.11;100998.69;5007551;28;20200;-71
2022/05/13 08:59:03;;;;;;;5.30;3.40;;;;;;;15.22;57.42;100996.00;5012257;28;20529;-71
2022/05/13 09:01:36;;;;;;;6.83;3.87;;;;;;;14.76;57.30;101004.31;5012533;28;20199;-72
2022/05/13 09:04:05;;;;;;;3.63;3.37;;;;;;;14.48;57.54;100984.84;5012258;28;20202;-71
2022/05/13 09:06:39;;;;;;;5.73;3.50;;;;;;;14.69;58.57;100974.72;5005696;28;20198;-71
2022/05/13 09:09:09;;;;;;;6.80;3.90;;;;;;;14.58;59.19;100938.22;5010160;28;20218;-72
2022/05/13 09:11:41;;;;;;;4.67;4.07;;;;;;;14.70;58.62;100926.50;5012320;28;20253;-72
2022/05/13 09:14:19;;;;;;;5.30;4.20;;;;;;;14.84;59.69;100934.84;5012024;28;20649;-71
2022/05/13 09:16:54;;;;;;;5.00;4.03;;;;;;;14.97;58.71;100937.16;5012300;28;20202;-72
2022/05/13 09:19:31;;;;;;;5.40;4.27;;;;;;;14.93;58.50;100957.41;5011650;28;20715;-72
2022/05/13 09:21:57;;;;;;;5.93;4.07;;;;;;;14.65;58.25;100971.31;5008004;28;20642;-72
2022/05/13 09:24:25;;;;;;;7.63;3.83;;;;;;;14.99;58.37;100967.75;5012372;28;20209;-72
2022/05/13 09:26:51;;;;;;;6.27;3.93;;;;;;;15.16;57.79;100971.63;5001532;28;20203;-71
2022/05/13 09:29:20;;;;;;;4.50;4.07;;;;;;;14.97;58.13;100984.47;5011635;28;20230;-72
2022/05/13 09:32:01;;;;;;;6.37;3.97;;;;;;;14.95;57.69;100989.78;5011523;28;20227;-72
2022/05/13 09:34:35;;;;;;;5.10;3.83;;;;;;;14.88;57.73;100982.94;5011976;28;20218;-71
2022/05/13 09:37:09;;;;;;;5.23;3.77;;;;;;;15.08;58.69;100964.84;5002094;28;20240;-71
2022/05/13 09:39:38;;;;;;;3.53;3.23;;;;;;;15.18;57.67;100968.09;5003339;28;20198;-72
2022/05/13 09:42:23;;;;;;;5.00;3.67;;;;;;;15.28;56.83;100998.47;5011545;28;20221;-71
2022/05/13 09:44:52;;;;;;;5.07;3.97;;;;;;;15.56;57.45;100999.38;5011666;28;20295;-72
2022/05/13 09:47:28;;;;;;;5.20;4.10;;;;;;;15.54;56.64;101027.50;5011984;28;20322;-71
2022/05/13 09:49:55;;;;;;;10.23;4.70;;;;;;;15.31;57.24;101020.31;5012138;28;20215;-72
2022/05/13 09:52:29;;;;;;;5.33;4.00;;;;;;;15.14;57.22;101011.13;5011914;28;20228;-71
2022/05/13 09:54:56;;;;;;;4.93;3.83;;;;;;;15.31;57.01;100994.88;5011995;28;20257;-71
2022/05/13 09:57:30;;;;;;;5.20;4.03;;;;;;;15.46;55.70;101015.47;5011774;28;20578;-72
2022/05/13 10:00:01;;;;;;;4.47;3.70;;;;;;;15.62;54.91;101054.47;5011516;28;20212;-71
2022/05/13 10:02:33;;;;;;;4.90;4.17;;;;;;;15.59;54.89;101088.78;5011784;28;20235;-72
2022/05/13 10:05:15;;;;;;;8.23;4.00;;;;;;;15.53;55.23;101063.50;4999267;28;20204;-71
2022/05/13 10:07:54;;;;;;;5.63;4.10;;;;;;;15.52;54.89;101059.16;4991962;28;20606;-72
2022/05/13 10:16:13;;;;;;;5.30;3.60;;;;;;;15.83;52.83;101127.53;4992231;28;20250;-72
2022/05/13 10:18:48;;;;;;;5.13;3.40;;;;;;;15.74;52.08;101156.78;4992087;28;20219;-73
2022/05/13 10:21:19;;;;;;;3.93;3.60;;;;;;;15.75;52.97;101155.88;4992465;28;20260;-71
2022/05/13 10:23:54;;;;;;;4.80;3.97;;;;;;;15.65;53.29;101162.28;4991546;28;20209;-72
2022/05/13 10:26:23;;;;;;;4.70;4.03;;;;;;;15.62;54.12;101126.38;4992217;28;20201;-72
2022/05/13 10:28:55;;;;;;;3.33;2.73;;;;;;;15.51;53.46;101122.34;4992151;28;20258;-72
2022/05/13 10:31:26;;;;;;;3.80;2.80;;;;;;;15.69;53.96;101127.91;4992227;28;20288;-71
2022/05/13 10:33:57;;;;;;;3.87;2.70;;;;;;;15.79;52.73;101151.38;4995575;28;20191;-72
2022/05/13 10:36:31;;;;;;;4.53;2.40;;;;;;;15.96;51.65;101157.03;4995200;28;20592;-72
2022/05/13 10:39:05;;;;;;;3.87;2.50;;;;;;;16.06;51.25;101213.78;4995502;28;20223;-72
2022/05/13 10:41:36;;;;;;;4.13;2.10;;;;;;;16.11;51.30;101211.00;4995365;28;20196;-72
2022/05/13 10:44:07;;;;;;;3.23;1.83;;;;;;;16.12;51.36;101196.94;4995291;28;20204;-71
2022/05/13 10:46:45;;;;;;;3.00;1.70;;;;;;;16.01;49.99;101252.53;4995051;28;20647;-72
2022/05/13 10:49:12;;;;;;;4.83;2.07;;;;;;;16.14;50.66;101239.03;4995545;28;20307;-72
2022/05/13 10:51:46;;;;;;;3.73;1.60;;;;;;;16.00;50.53;101244.69;4995408;28;20231;-72
2022/05/13 10:54:26;;;;;;;3.53;1.80;;;;;;;15.89;49.83;101260.78;4995520;28;20270;-72
2022/05/13 10:57:06;;;;;;;2.43;1.60;;;;;;;16.05;49.92;101277.00;4995217;28;20196;-72
2022/05/13 10:59:50;;;;;;;1.97;1.37;;;;;;;16.07;50.70;101262.91;4995039;28;20218;-72
2022/05/13 11:02:59;;;;;;;1.70;1.23;;;;;;;15.97;50.38;101265.84;4995289;28;20241;-72
2022/05/13 11:05:36;;;;;;;2.33;1.90;;;;;;;15.91;50.93;101239.69;4994914;28;20212;-72
2022/05/13 11:08:14;;;;;;;2.37;1.67;;;;;;;15.73;51.25;101241.91;4994670;28;20266;-74
2022/05/13 11:10:49;;;;;;;3.93;1.60;;;;;;;15.58;51.03;101239.66;4995107;28;20324;-72
2022/05/13 11:13:23;;;;;;;3.73;1.60;;;;;;;15.76;50.76;101248.88;4993682;28;20282;-72
2022/05/13 11:15:57;;;;;;;4.40;2.13;;;;;;;15.79;50.58;101260.16;4995132;28;20208;-72
2022/05/13 11:18:42;;;;;;;1.77;1.27;;;;;;;15.70;50.71;101257.78;4999344;28;20684;-72
2022/05/13 11:21:22;;;;;;;2.03;1.30;;;;;;;15.86;50.73;101267.00;5011766;28;20546;-72
2022/05/13 11:26:52;;;;;;;3.53;1.50;;;;;;;16.01;49.36;101321.00;4994656;28;20209;-71
2022/05/13 11:29:26;;;;;;;3.23;1.60;;;;;;;16.18;49.60;101314.44;4994411;28;20596;-72
2022/05/13 11:32:15;;;;;;;3.70;1.47;;;;;;;16.15;49.00;101327.66;4994329;28;20649;-72
2022/05/13 11:34:55;;;;;;;2.77;1.13;;;;;;;16.52;49.04;101335.38;4994492;28;20279;-72
2022/05/13 11:37:22;;;;;;;2.07;1.20;;;;;;;16.72;47.78;101352.41;4994077;28;20272;-73
2022/05/13 11:40:07;;;;;;;3.27;1.70;;;;;;;16.45;47.87;101379.53;4993250;28;20206;-72
2022/05/13 11:45:34;;;;;;;4.57;2.27;;;;;;;16.27;49.37;101343.13;4992615;28;20212;-72
2022/05/13 11:48:17;;;;;;;4.20;1.60;;;;;;;16.15;49.40;101327.66;4994693;28;20207;-71
2022/05/13 11:50:45;;;;;;;2.93;1.43;;;;;;;16.27;49.75;101311.50;4994060;28;20270;-72
2022/05/13 11:53:11;;;;;;;2.17;1.20;;;;;;;16.25;50.01;101313.31;5005524;28;20230;-72
2022/05/13 11:55:49;;;;;;;2.97;1.33;;;;;;;16.31;50.51;101297.34;4994059;28;20210;-72
2022/05/13 11:58:47;;;;;;;4.13;1.50;;;;;;;16.19;50.86;101285.38;4994380;28;20211;-71
2022/05/13 12:01:14;;;;;;;2.10;1.20;;;;;;;15.74;49.45;101303.31;4994004;28;20682;-72
2022/05/13 12:03:40;;;;;;;1.60;1.30;;;;;;;15.78;50.60;101299.72;4993425;28;20327;-72
2022/05/13 12:06:11;;;;;;;1.63;1.00;;;;;;;15.69;50.12;101296.38;4993845;28;20197;-71
2022/05/13 12:08:43;;;;;;;2.10;0.97;;;;;;;15.69;49.95;101298.16;4993526;28;20210;-72